Warning: Javascript must be enabled to use all the features on this page!


Page Loading - Please Wait...

Click to hideNews Bulletins

Peak Streamflow for the Nation

USGS 06026500 Jefferson River near Twin Bridges MT

Madison County, Montana
Hydrologic Unit Code 10020005
Latitude  45°36'47.82", Longitude 112°19'45.83" NAD83
Drainage area 7,616  square miles
Gage datum 4,560 feet above NAVD88
Output formats
Table
Graph
Tab-separated file
peakfq (watstore) format
Reselect output format
Water
Year
Date Gage
Height
(feet)
Stream-
flow
(cfs)
1942 1942-05-28   13,200
1943 1943-06-01   10,200
1958 1958-05-27 7.04 8,140
1959 1959-06-10 6.94 8,040
1960 1960-03-29   6,270
1961 1961-06-13 5.89 5,460
1962 1962-06-16 6.42 6,820
1963 1963-06-25   8,240
1964 1964-06-10 9.04 16,500
1965 1965-06-18 8.13 12,700
1966 1966-04-05 4.53 3,290
1967 1967-06-08 7.55 10,100
1968 1968-06-12 6.712 8,190
1969 1969-05-22 7.51 10,400
1970 1970-06-10 7.69 10,500
1971 1971-06-02 7.34 10,000
1972 1972-06-03 8.25 12,900
1994 1994-04-24 7.50 3,4002
1995 1995-06-08 12.60 14,000
1996 1996-06-11 12.00 13,100
1997 1997-06-09 12.42 15,200
1998 1998-06-27 9.66 8,300
1999 1999-05-31 10.082 9,220
2000 2000-05-30 6.33 2,950
2001 2001-06-16 6.392 3,030
2002 2002-06-03 8.372 6,050
2003 2003-06-01 10.31 10,800
2004 2004-06-11 5.832 2,580
2005 2005-05-22 6.962 4,100
2006 2006-06-11 9.44 8,500
2007 2007-06-09 7.472 4,610
2008 2008-05-22 9.58 8,320
2009 2009-06-02 9.58 9,000
2010 2010-06-19 9.33 11,500
2011 2011-06-12 9.70 13,000
2012 2012-04-28 7.34 7,530
2013 2013-05-29 5.642 3,650
2014 2014-05-30 8.35 9,350
2015 2015-06-04 6.352 4,500
2016 2016-05-22 6.852 5,540
2017 2017-06-16 8.76 10,400R
2018 2018-05-28 9.392 12,400
2019 2019-05-18 7.522 7,080
2020 2020-06-20 8.45 9,560
2021 2021-06-06 5.782 3,640
?
  Peak Gage-Height Qualification Codes.
?
  Peak Streamflow Qualification Codes.